sensor_id;sensor_type;location;lat;lon;timestamp;pressure;altitude;pressure_sealevel;temperature
15680;BMP180;15488;48.114;11.532;2022-11-15T00:00:12;95275.00;;;13.70
15680;BMP180;15488;48.114;11.532;2022-11-15T00:02:39;95276.00;;;13.70
15680;BMP180;15488;48.114;11.532;2022-11-15T00:05:07;95267.00;;;13.70
15680;BMP180;15488;48.114;11.532;2022-11-15T00:07:39;95269.00;;;13.70
15680;BMP180;15488;48.114;11.532;2022-11-15T00:10:07;95267.00;;;13.60
15680;BMP180;15488;48.114;11.532;2022-11-15T00:12:34;95261.00;;;13.70
15680;BMP180;15488;48.114;11.532;2022-11-15T00:15:02;95257.00;;;13.60
15680;BMP180;15488;48.114;11.532;2022-11-15T00:17:29;95259.00;;;13.60
15680;BMP180;15488;48.114;11.532;2022-11-15T00:19:57;95254.00;;;13.60
15680;BMP180;15488;48.114;11.532;2022-11-15T00:22:24;95255.00;;;13.60
15680;BMP180;15488;48.114;11.532;2022-11-15T00:24:53;95253.00;;;13.60
15680;BMP180;15488;48.114;11.532;2022-11-15T00:27:21;95264.00;;;13.60
15680;BMP180;15488;48.114;11.532;2022-11-15T00:29:48;95255.00;;;13.60
15680;BMP180;15488;48.114;11.532;2022-11-15T00:32:19;95253.00;;;13.60
15680;BMP180;15488;48.114;11.532;2022-11-15T00:34:46;95255.00;;;13.60
15680;BMP180;15488;48.114;11.532;2022-11-15T00:37:13;95258.00;;;13.60
15680;BMP180;15488;48.114;11.532;2022-11-15T00:39:41;95259.00;;;13.60
15680;BMP180;15488;48.114;11.532;2022-11-15T00:42:10;95243.00;;;13.60
15680;BMP180;15488;48.114;11.532;2022-11-15T00:44:37;95245.00;;;13.60
15680;BMP180;15488;48.114;11.532;2022-11-15T00:47:05;95245.00;;;13.60
15680;BMP180;15488;48.114;11.532;2022-11-15T00:49:32;95240.00;;;13.60
15680;BMP180;15488;48.114;11.532;2022-11-15T00:51:59;95233.00;;;13.60
15680;BMP180;15488;48.114;11.532;2022-11-15T00:54:27;95234.00;;;13.60
15680;BMP180;15488;48.114;11.532;2022-11-15T00:56:54;95231.00;;;13.60
15680;BMP180;15488;48.114;11.532;2022-11-15T00:59:23;95234.00;;;13.50
15680;BMP180;15488;48.114;11.532;2022-11-15T01:01:51;95222.00;;;13.50
15680;BMP180;15488;48.114;11.532;2022-11-15T01:04:18;95218.00;;;13.50
15680;BMP180;15488;48.114;11.532;2022-11-15T01:06:46;95218.00;;;13.50
15680;BMP180;15488;48.114;11.532;2022-11-15T01:09:13;95215.00;;;13.50
15680;BMP180;15488;48.114;11.532;2022-11-15T01:11:41;95166.00;;;13.50
15680;BMP180;15488;48.114;11.532;2022-11-15T01:14:08;95208.00;;;13.50
15680;BMP180;15488;48.114;11.532;2022-11-15T01:16:37;95161.00;;;13.50
15680;BMP180;15488;48.114;11.532;2022-11-15T01:19:04;95202.00;;;13.50
15680;BMP180;15488;48.114;11.532;2022-11-15T01:21:32;95197.00;;;13.50
15680;BMP180;15488;48.114;11.532;2022-11-15T01:23:59;95196.00;;;13.40
15680;BMP180;15488;48.114;11.532;2022-11-15T01:26:27;95195.00;;;13.40
15680;BMP180;15488;48.114;11.532;2022-11-15T01:28:54;95208.00;;;13.40
15680;BMP180;15488;48.114;11.532;2022-11-15T01:31:22;95193.00;;;13.30
15680;BMP180;15488;48.114;11.532;2022-11-15T01:33:50;95187.00;;;13.30
15680;BMP180;15488;48.114;11.532;2022-11-15T01:36:20;95184.00;;;13.30
15680;BMP180;15488;48.114;11.532;2022-11-15T01:38:52;95190.00;;;13.20
15680;BMP180;15488;48.114;11.532;2022-11-15T01:41:22;95174.00;;;13.20
15680;BMP180;15488;48.114;11.532;2022-11-15T01:43:53;95178.00;;;13.20
15680;BMP180;15488;48.114;11.532;2022-11-15T01:46:29;95174.00;;;13.10
15680;BMP180;15488;48.114;11.532;2022-11-15T01:49:02;95180.00;;;13.10
15680;BMP180;15488;48.114;11.532;2022-11-15T01:51:32;95177.00;;;13.10
15680;BMP180;15488;48.114;11.532;2022-11-15T01:54:04;95171.00;;;13.10
15680;BMP180;15488;48.114;11.532;2022-11-15T01:56:37;95159.00;;;13.00
15680;BMP180;15488;48.114;11.532;2022-11-15T01:59:08;95166.00;;;13.00
15680;BMP180;15488;48.114;11.532;2022-11-15T02:01:37;95158.00;;;13.00
15680;BMP180;15488;48.114;11.532;2022-11-15T02:04:10;95148.00;;;13.00
15680;BMP180;15488;48.114;11.532;2022-11-15T02:06:39;95156.00;;;13.00
15680;BMP180;15488;48.114;11.532;2022-11-15T02:09:07;95152.00;;;12.90
15680;BMP180;15488;48.114;11.532;2022-11-15T02:11:34;95154.00;;;12.90
15680;BMP180;15488;48.114;11.532;2022-11-15T02:14:03;95149.00;;;12.90
15680;BMP180;15488;48.114;11.532;2022-11-15T02:16:38;95148.00;;;12.90
15680;BMP180;15488;48.114;11.532;2022-11-15T02:19:22;95147.00;;;12.80
15680;BMP180;15488;48.114;11.532;2022-11-15T02:22:05;95138.00;;;12.80
15680;BMP180;15488;48.114;11.532;2022-11-15T02:24:50;95141.00;;;12.80
15680;BMP180;15488;48.114;11.532;2022-11-15T02:30:42;95136.00;;;12.80
15680;BMP180;15488;48.114;11.532;2022-11-15T02:33:23;95138.00;;;12.70
15680;BMP180;15488;48.114;11.532;2022-11-15T02:35:59;95144.00;;;12.70
15680;BMP180;15488;48.114;11.532;2022-11-15T02:38:31;95160.00;;;12.70
15680;BMP180;15488;48.114;11.532;2022-11-15T02:41:03;95143.00;;;12.70
15680;BMP180;15488;48.114;11.532;2022-11-15T02:43:36;95133.00;;;12.70
15680;BMP180;15488;48.114;11.532;2022-11-15T02:46:28;95131.00;;;12.70
15680;BMP180;15488;48.114;11.532;2022-11-15T02:49:14;95128.00;;;12.70
15680;BMP180;15488;48.114;11.532;2022-11-15T02:51:42;95136.00;;;12.70
15680;BMP180;15488;48.114;11.532;2022-11-15T02:54:14;95129.00;;;12.70
15680;BMP180;15488;48.114;11.532;2022-11-15T02:56:44;95126.00;;;12.60
15680;BMP180;15488;48.114;11.532;2022-11-15T03:02:35;95128.00;;;12.60
15680;BMP180;15488;48.114;11.532;2022-11-15T03:05:13;95118.00;;;12.60
15680;BMP180;15488;48.114;11.532;2022-11-15T03:07:47;95120.00;;;12.60
15680;BMP180;15488;48.114;11.532;2022-11-15T03:10:22;95103.00;;;12.60
15680;BMP180;15488;48.114;11.532;2022-11-15T03:12:55;95107.00;;;12.60
15680;BMP180;15488;48.114;11.532;2022-11-15T03:15:27;95108.00;;;12.60
15680;BMP180;15488;48.114;11.532;2022-11-15T03:17:59;95105.00;;;12.60
15680;BMP180;15488;48.114;11.532;2022-11-15T03:20:28;95110.00;;;12.60
15680;BMP180;15488;48.114;11.532;2022-11-15T03:23:00;95106.00;;;12.60
15680;BMP180;15488;48.114;11.532;2022-11-15T03:25:30;95103.00;;;12.50
15680;BMP180;15488;48.114;11.532;2022-11-15T03:28:01;95100.00;;;12.60
15680;BMP180;15488;48.114;11.532;2022-11-15T03:30:30;95095.00;;;12.50
15680;BMP180;15488;48.114;11.532;2022-11-15T03:33:01;95094.00;;;12.50
15680;BMP180;15488;48.114;11.532;2022-11-15T03:35:34;95092.00;;;12.50
15680;BMP180;15488;48.114;11.532;2022-11-15T03:38:08;95088.00;;;12.50
15680;BMP180;15488;48.114;11.532;2022-11-15T03:40:40;95090.00;;;12.50
15680;BMP180;15488;48.114;11.532;2022-11-15T03:43:13;95083.00;;;12.50
15680;BMP180;15488;48.114;11.532;2022-11-15T03:45:46;95077.00;;;12.50
15680;BMP180;15488;48.114;11.532;2022-11-15T03:48:20;95079.00;;;12.50
15680;BMP180;15488;48.114;11.532;2022-11-15T03:50:48;95081.00;;;12.60
15680;BMP180;15488;48.114;11.532;2022-11-15T03:53:16;95082.00;;;12.50
15680;BMP180;15488;48.114;11.532;2022-11-15T03:55:44;95075.00;;;12.50
15680;BMP180;15488;48.114;11.532;2022-11-15T03:58:11;95081.00;;;12.50
15680;BMP180;15488;48.114;11.532;2022-11-15T04:00:39;95074.00;;;12.50
15680;BMP180;15488;48.114;11.532;2022-11-15T04:03:06;95068.00;;;12.50
15680;BMP180;15488;48.114;11.532;2022-11-15T04:05:35;95068.00;;;12.50
15680;BMP180;15488;48.114;11.532;2022-11-15T04:08:03;95060.00;;;12.50
15680;BMP180;15488;48.114;11.532;2022-11-15T04:10:31;95067.00;;;12.50
15680;BMP180;15488;48.114;11.532;2022-11-15T04:12:58;95071.00;;;12.50
15680;BMP180;15488;48.114;11.532;2022-11-15T04:15:26;95066.00;;;12.50
15680;BMP180;15488;48.114;11.532;2022-11-15T04:17:56;95058.00;;;12.50
15680;BMP180;15488;48.114;11.532;2022-11-15T04:20:25;95064.00;;;12.50
15680;BMP180;15488;48.114;11.532;2022-11-15T04:23:27;95070.00;;;12.40
15680;BMP180;15488;48.114;11.532;2022-11-15T04:26:14;95061.00;;;12.40
15680;BMP180;15488;48.114;11.532;2022-11-15T04:28:42;95062.00;;;12.40
15680;BMP180;15488;48.114;11.532;2022-11-15T04:31:24;95047.00;;;12.40
15680;BMP180;15488;48.114;11.532;2022-11-15T04:33:51;95043.00;;;12.40
15680;BMP180;15488;48.114;11.532;2022-11-15T04:36:19;95041.00;;;12.40
15680;BMP180;15488;48.114;11.532;2022-11-15T04:39:06;95047.00;;;12.40
15680;BMP180;15488;48.114;11.532;2022-11-15T04:41:33;95042.00;;;12.40
15680;BMP180;15488;48.114;11.532;2022-11-15T04:44:01;95042.00;;;12.40
15680;BMP180;15488;48.114;11.532;2022-11-15T04:46:28;95041.00;;;12.40
15680;BMP180;15488;48.114;11.532;2022-11-15T04:48:56;95043.00;;;12.40
15680;BMP180;15488;48.114;11.532;2022-11-15T04:51:24;95038.00;;;12.40
15680;BMP180;15488;48.114;11.532;2022-11-15T04:53:51;95045.00;;;12.40
15680;BMP180;15488;48.114;11.532;2022-11-15T04:56:20;95044.00;;;12.40
15680;BMP180;15488;48.114;11.532;2022-11-15T04:58:49;95047.00;;;12.40
15680;BMP180;15488;48.114;11.532;2022-11-15T05:01:17;95041.00;;;12.40
15680;BMP180;15488;48.114;11.532;2022-11-15T05:03:44;95044.00;;;12.50
15680;BMP180;15488;48.114;11.532;2022-11-15T05:06:34;95030.00;;;12.50
15680;BMP180;15488;48.114;11.532;2022-11-15T05:09:02;95035.00;;;12.40
15680;BMP180;15488;48.114;11.532;2022-11-15T05:11:31;95021.00;;;12.40
15680;BMP180;15488;48.114;11.532;2022-11-15T05:13:58;95024.00;;;12.40
15680;BMP180;15488;48.114;11.532;2022-11-15T05:16:26;95018.00;;;12.40
15680;BMP180;15488;48.114;11.532;2022-11-15T05:18:54;95014.00;;;12.40
15680;BMP180;15488;48.114;11.532;2022-11-15T05:21:22;95008.00;;;12.40
15680;BMP180;15488;48.114;11.532;2022-11-15T05:23:49;95013.00;;;12.40
15680;BMP180;15488;48.114;11.532;2022-11-15T05:26:18;95007.00;;;12.40
15680;BMP180;15488;48.114;11.532;2022-11-15T05:28:51;95009.00;;;12.40
15680;BMP180;15488;48.114;11.532;2022-11-15T05:31:18;95009.00;;;12.40
15680;BMP180;15488;48.114;11.532;2022-11-15T05:33:46;95000.00;;;12.30
15680;BMP180;15488;48.114;11.532;2022-11-15T05:36:17;95005.00;;;12.30
15680;BMP180;15488;48.114;11.532;2022-11-15T05:38:47;95006.00;;;12.30
15680;BMP180;15488;48.114;11.532;2022-11-15T05:41:16;95008.00;;;12.30
15680;BMP180;15488;48.114;11.532;2022-11-15T05:43:46;95008.00;;;12.30
15680;BMP180;15488;48.114;11.532;2022-11-15T05:46:15;95004.00;;;12.30
15680;BMP180;15488;48.114;11.532;2022-11-15T05:48:45;94998.00;;;12.20
15680;BMP180;15488;48.114;11.532;2022-11-15T05:51:16;94989.00;;;12.20
15680;BMP180;15488;48.114;11.532;2022-11-15T05:53:45;95001.00;;;12.30
15680;BMP180;15488;48.114;11.532;2022-11-15T05:56:13;94997.00;;;12.20
15680;BMP180;15488;48.114;11.532;2022-11-15T05:58:41;94995.00;;;12.20
15680;BMP180;15488;48.114;11.532;2022-11-15T06:01:10;94991.00;;;12.20
15680;BMP180;15488;48.114;11.532;2022-11-15T06:03:37;94985.00;;;12.20
15680;BMP180;15488;48.114;11.532;2022-11-15T06:06:05;94983.00;;;12.20
15680;BMP180;15488;48.114;11.532;2022-11-15T06:08:33;94987.00;;;12.30
15680;BMP180;15488;48.114;11.532;2022-11-15T06:11:04;94991.00;;;12.20
15680;BMP180;15488;48.114;11.532;2022-11-15T06:13:32;94990.00;;;12.30
15680;BMP180;15488;48.114;11.532;2022-11-15T06:15:59;94988.00;;;12.30
15680;BMP180;15488;48.114;11.532;2022-11-15T06:18:31;94983.00;;;12.20
15680;BMP180;15488;48.114;11.532;2022-11-15T06:20:59;94983.00;;;12.30
15680;BMP180;15488;48.114;11.532;2022-11-15T06:23:27;94985.00;;;12.30
15680;BMP180;15488;48.114;11.532;2022-11-15T06:25:58;94975.00;;;12.30
15680;BMP180;15488;48.114;11.532;2022-11-15T06:28:27;94973.00;;;12.30
15680;BMP180;15488;48.114;11.532;2022-11-15T06:30:55;94980.00;;;12.30
15680;BMP180;15488;48.114;11.532;2022-11-15T06:33:23;94981.00;;;12.30
15680;BMP180;15488;48.114;11.532;2022-11-15T06:35:52;94980.00;;;12.30
15680;BMP180;15488;48.114;11.532;2022-11-15T06:38:19;94979.00;;;12.30
15680;BMP180;15488;48.114;11.532;2022-11-15T06:40:46;94980.00;;;12.30
15680;BMP180;15488;48.114;11.532;2022-11-15T06:43:14;94982.00;;;12.40
15680;BMP180;15488;48.114;11.532;2022-11-15T06:45:41;94983.00;;;12.30
15680;BMP180;15488;48.114;11.532;2022-11-15T06:48:09;94983.00;;;12.30
15680;BMP180;15488;48.114;11.532;2022-11-15T06:50:36;94987.00;;;12.40
15680;BMP180;15488;48.114;11.532;2022-11-15T06:53:05;94984.00;;;12.30
15680;BMP180;15488;48.114;11.532;2022-11-15T06:55:33;94994.00;;;12.30
15680;BMP180;15488;48.114;11.532;2022-11-15T06:58:00;94993.00;;;12.30
15680;BMP180;15488;48.114;11.532;2022-11-15T07:00:27;94988.00;;;12.30
15680;BMP180;15488;48.114;11.532;2022-11-15T07:02:55;94992.00;;;12.30
15680;BMP180;15488;48.114;11.532;2022-11-15T07:05:26;94990.00;;;12.40
15680;BMP180;15488;48.114;11.532;2022-11-15T07:07:54;94990.00;;;12.30
15680;BMP180;15488;48.114;11.532;2022-11-15T07:10:24;94990.00;;;12.30
15680;BMP180;15488;48.114;11.532;2022-11-15T07:12:51;94994.00;;;12.40
15680;BMP180;15488;48.114;11.532;2022-11-15T07:15:21;94995.00;;;12.40
15680;BMP180;15488;48.114;11.532;2022-11-15T07:17:48;95005.00;;;12.50
15680;BMP180;15488;48.114;11.532;2022-11-15T07:20:16;95008.00;;;12.50
15680;BMP180;15488;48.114;11.532;2022-11-15T07:22:44;95004.00;;;12.50
15680;BMP180;15488;48.114;11.532;2022-11-15T07:25:12;95008.00;;;12.50
15680;BMP180;15488;48.114;11.532;2022-11-15T07:27:41;95008.00;;;12.60
15680;BMP180;15488;48.114;11.532;2022-11-15T07:30:09;95014.00;;;12.60
15680;BMP180;15488;48.114;11.532;2022-11-15T07:32:36;95006.00;;;12.70
15680;BMP180;15488;48.114;11.532;2022-11-15T07:35:04;95006.00;;;12.70
15680;BMP180;15488;48.114;11.532;2022-11-15T07:37:32;94995.00;;;12.70
15680;BMP180;15488;48.114;11.532;2022-11-15T07:39:59;94991.00;;;12.80
15680;BMP180;15488;48.114;11.532;2022-11-15T07:42:27;94988.00;;;12.80
15680;BMP180;15488;48.114;11.532;2022-11-15T07:45:13;94977.00;;;12.80
15680;BMP180;15488;48.114;11.532;2022-11-15T07:47:40;94977.00;;;12.90
15680;BMP180;15488;48.114;11.532;2022-11-15T07:50:12;94983.00;;;13.00
15680;BMP180;15488;48.114;11.532;2022-11-15T07:52:39;94984.00;;;13.00
15680;BMP180;15488;48.114;11.532;2022-11-15T07:55:08;94987.00;;;13.00
15680;BMP180;15488;48.114;11.532;2022-11-15T07:57:35;94982.00;;;13.10
15680;BMP180;15488;48.114;11.532;2022-11-15T08:00:04;94977.00;;;13.10
15680;BMP180;15488;48.114;11.532;2022-11-15T08:02:33;94962.00;;;13.10
15680;BMP180;15488;48.114;11.532;2022-11-15T08:05:01;94960.00;;;13.20
15680;BMP180;15488;48.114;11.532;2022-11-15T08:07:29;94959.00;;;13.20
15680;BMP180;15488;48.114;11.532;2022-11-15T08:09:57;94964.00;;;13.30
15680;BMP180;15488;48.114;11.532;2022-11-15T08:12:27;94966.00;;;13.40
15680;BMP180;15488;48.114;11.532;2022-11-15T08:14:55;94959.00;;;13.50
15680;BMP180;15488;48.114;11.532;2022-11-15T08:17:22;94941.00;;;13.50
15680;BMP180;15488;48.114;11.532;2022-11-15T08:19:51;94935.00;;;13.50
15680;BMP180;15488;48.114;11.532;2022-11-15T08:22:19;94932.00;;;13.50
15680;BMP180;15488;48.114;11.532;2022-11-15T08:24:47;94932.00;;;13.60
15680;BMP180;15488;48.114;11.532;2022-11-15T08:27:14;94926.00;;;13.70
15680;BMP180;15488;48.114;11.532;2022-11-15T08:29:42;94923.00;;;13.70
15680;BMP180;15488;48.114;11.532;2022-11-15T08:32:10;94925.00;;;13.70
15680;BMP180;15488;48.114;11.532;2022-11-15T08:34:38;94918.00;;;13.70
15680;BMP180;15488;48.114;11.532;2022-11-15T08:37:07;94921.00;;;13.80
15680;BMP180;15488;48.114;11.532;2022-11-15T08:39:35;94916.00;;;13.80
15680;BMP180;15488;48.114;11.532;2022-11-15T08:42:02;94918.00;;;13.80
15680;BMP180;15488;48.114;11.532;2022-11-15T08:44:30;94927.00;;;13.80
15680;BMP180;15488;48.114;11.532;2022-11-15T08:46:57;94926.00;;;13.90
15680;BMP180;15488;48.114;11.532;2022-11-15T08:49:24;94920.00;;;14.00
15680;BMP180;15488;48.114;11.532;2022-11-15T08:51:53;94933.00;;;14.00
15680;BMP180;15488;48.114;11.532;2022-11-15T08:54:23;94929.00;;;14.10
15680;BMP180;15488;48.114;11.532;2022-11-15T08:56:51;94924.00;;;14.10
15680;BMP180;15488;48.114;11.532;2022-11-15T08:59:18;94924.00;;;14.10
15680;BMP180;15488;48.114;11.532;2022-11-15T09:01:46;94923.00;;;14.20
15680;BMP180;15488;48.114;11.532;2022-11-15T09:04:13;94925.00;;;14.30
15680;BMP180;15488;48.114;11.532;2022-11-15T09:06:40;94926.00;;;14.30
15680;BMP180;15488;48.114;11.532;2022-11-15T09:09:08;94919.00;;;14.40
15680;BMP180;15488;48.114;11.532;2022-11-15T09:11:37;94923.00;;;14.40
15680;BMP180;15488;48.114;11.532;2022-11-15T09:14:04;94916.00;;;14.50
15680;BMP180;15488;48.114;11.532;2022-11-15T09:16:32;94912.00;;;14.60
15680;BMP180;15488;48.114;11.532;2022-11-15T09:19:00;94909.00;;;14.60
15680;BMP180;15488;48.114;11.532;2022-11-15T09:21:29;94900.00;;;14.70
15680;BMP180;15488;48.114;11.532;2022-11-15T09:23:57;94898.00;;;14.70
15680;BMP180;15488;48.114;11.532;2022-11-15T09:26:24;94888.00;;;14.80
15680;BMP180;15488;48.114;11.532;2022-11-15T09:28:53;94882.00;;;14.90
15680;BMP180;15488;48.114;11.532;2022-11-15T09:31:21;94887.00;;;14.90
15680;BMP180;15488;48.114;11.532;2022-11-15T09:33:48;94884.00;;;15.00
15680;BMP180;15488;48.114;11.532;2022-11-15T09:36:15;94878.00;;;15.00
15680;BMP180;15488;48.114;11.532;2022-11-15T09:38:44;94874.00;;;15.10
15680;BMP180;15488;48.114;11.532;2022-11-15T09:41:36;94873.00;;;15.10
15680;BMP180;15488;48.114;11.532;2022-11-15T09:44:19;94873.00;;;15.20
15680;BMP180;15488;48.114;11.532;2022-11-15T09:46:58;94866.00;;;15.20
15680;BMP180;15488;48.114;11.532;2022-11-15T09:49:26;94871.00;;;15.30
15680;BMP180;15488;48.114;11.532;2022-11-15T09:51:56;94871.00;;;15.40
15680;BMP180;15488;48.114;11.532;2022-11-15T09:54:28;94856.00;;;15.40
15680;BMP180;15488;48.114;11.532;2022-11-15T09:57:02;94856.00;;;15.50
15680;BMP180;15488;48.114;11.532;2022-11-15T09:59:45;94850.00;;;15.50
15680;BMP180;15488;48.114;11.532;2022-11-15T10:02:30;94852.00;;;15.60
15680;BMP180;15488;48.114;11.532;2022-11-15T10:05:00;94850.00;;;15.70
15680;BMP180;15488;48.114;11.532;2022-11-15T10:07:33;94847.00;;;15.50
15680;BMP180;15488;48.114;11.532;2022-11-15T10:10:09;94836.00;;;15.80
15680;BMP180;15488;48.114;11.532;2022-11-15T10:12:42;94834.00;;;15.90
15680;BMP180;15488;48.114;11.532;2022-11-15T10:15:16;94830.00;;;15.90
15680;BMP180;15488;48.114;11.532;2022-11-15T10:18:09;94829.00;;;16.00
15680;BMP180;15488;48.114;11.532;2022-11-15T10:20:49;94828.00;;;16.10
15680;BMP180;15488;48.114;11.532;2022-11-15T10:23:20;94823.00;;;16.10
15680;BMP180;15488;48.114;11.532;2022-11-15T10:25:51;94828.00;;;16.20
15680;BMP180;15488;48.114;11.532;2022-11-15T10:28:27;94822.00;;;16.30
15680;BMP180;15488;48.114;11.532;2022-11-15T10:30:57;94811.00;;;16.40
15680;BMP180;15488;48.114;11.532;2022-11-15T10:33:29;94808.00;;;16.40
15680;BMP180;15488;48.114;11.532;2022-11-15T10:38:28;94796.00;;;16.60
15680;BMP180;15488;48.114;11.532;2022-11-15T10:41:07;94793.00;;;16.60
15680;BMP180;15488;48.114;11.532;2022-11-15T10:43:34;94787.00;;;16.70
15680;BMP180;15488;48.114;11.532;2022-11-15T10:46:18;94787.00;;;16.70
15680;BMP180;15488;48.114;11.532;2022-11-15T10:48:45;94780.00;;;16.90
15680;BMP180;15488;48.114;11.532;2022-11-15T10:51:21;94782.00;;;16.90
15680;BMP180;15488;48.114;11.532;2022-11-15T10:53:52;94776.00;;;17.00
15680;BMP180;15488;48.114;11.532;2022-11-15T10:56:21;94770.00;;;17.00
15680;BMP180;15488;48.114;11.532;2022-11-15T10:58:52;94770.00;;;17.10
15680;BMP180;15488;48.114;11.532;2022-11-15T11:01:23;94761.00;;;17.20
15680;BMP180;15488;48.114;11.532;2022-11-15T11:04:00;94757.00;;;17.30
15680;BMP180;15488;48.114;11.532;2022-11-15T11:06:27;94751.00;;;17.40
15680;BMP180;15488;48.114;11.532;2022-11-15T11:08:58;94756.00;;;17.40
15680;BMP180;15488;48.114;11.532;2022-11-15T11:11:43;94754.00;;;17.50
15680;BMP180;15488;48.114;11.532;2022-11-15T11:14:13;94739.00;;;17.60
15680;BMP180;15488;48.114;11.532;2022-11-15T11:16:47;94740.00;;;17.70
15680;BMP180;15488;48.114;11.532;2022-11-15T11:22:09;94737.00;;;17.90
15680;BMP180;15488;48.114;11.532;2022-11-15T11:24:44;94731.00;;;17.90
15680;BMP180;15488;48.114;11.532;2022-11-15T11:27:20;94727.00;;;18.00
15680;BMP180;15488;48.114;11.532;2022-11-15T11:30:04;94727.00;;;18.10
15680;BMP180;15488;48.114;11.532;2022-11-15T11:33:00;94720.00;;;18.20
15680;BMP180;15488;48.114;11.532;2022-11-15T11:35:36;94716.00;;;18.30
15680;BMP180;15488;48.114;11.532;2022-11-15T11:38:19;94724.00;;;18.30
15680;BMP180;15488;48.114;11.532;2022-11-15T11:40:59;94715.00;;;18.40
15680;BMP180;15488;48.114;11.532;2022-11-15T11:43:32;94711.00;;;18.50
15680;BMP180;15488;48.114;11.532;2022-11-15T11:46:25;94703.00;;;18.60
15680;BMP180;15488;48.114;11.532;2022-11-15T11:49:04;94710.00;;;18.70
15680;BMP180;15488;48.114;11.532;2022-11-15T11:51:38;94701.00;;;18.80
15680;BMP180;15488;48.114;11.532;2022-11-15T11:54:14;94698.00;;;18.80
15680;BMP180;15488;48.114;11.532;2022-11-15T11:56:45;94701.00;;;18.90
15680;BMP180;15488;48.114;11.532;2022-11-15T11:59:17;94691.00;;;19.00
15680;BMP180;15488;48.114;11.532;2022-11-15T12:01:46;94681.00;;;19.10
15680;BMP180;15488;48.114;11.532;2022-11-15T12:04:19;94679.00;;;19.10
15680;BMP180;15488;48.114;11.532;2022-11-15T12:06:51;94684.00;;;19.20
15680;BMP180;15488;48.114;11.532;2022-11-15T12:09:23;94674.00;;;19.30
15680;BMP180;15488;48.114;11.532;2022-11-15T12:11:58;94677.00;;;19.30
15680;BMP180;15488;48.114;11.532;2022-11-15T12:14:32;94671.00;;;19.40
15680;BMP180;15488;48.114;11.532;2022-11-15T12:17:00;94667.00;;;19.50
15680;BMP180;15488;48.114;11.532;2022-11-15T12:19:30;94670.00;;;19.50
15680;BMP180;15488;48.114;11.532;2022-11-15T12:22:02;94670.00;;;19.60
15680;BMP180;15488;48.114;11.532;2022-11-15T12:24:34;94683.00;;;19.70
15680;BMP180;15488;48.114;11.532;2022-11-15T12:27:05;94673.00;;;19.80
15680;BMP180;15488;48.114;11.532;2022-11-15T12:29:37;94667.00;;;19.80
15680;BMP180;15488;48.114;11.532;2022-11-15T12:32:17;94666.00;;;19.90
15680;BMP180;15488;48.114;11.532;2022-11-15T12:34:49;94663.00;;;20.00
15680;BMP180;15488;48.114;11.532;2022-11-15T12:40:36;94661.00;;;20.30
15680;BMP180;15488;48.114;11.532;2022-11-15T12:46:19;94653.00;;;20.50
15680;BMP180;15488;48.114;11.532;2022-11-15T12:48:51;94664.00;;;20.60
15680;BMP180;15488;48.114;11.532;2022-11-15T12:57:40;94650.00;;;21.00
15680;BMP180;15488;48.114;11.532;2022-11-15T13:03:43;94635.00;;;21.40
15680;BMP180;15488;48.114;11.532;2022-11-15T13:06:40;94625.00;;;22.00
15680;BMP180;15488;48.114;11.532;2022-11-15T13:12:53;94622.00;;;24.60
15680;BMP180;15488;48.114;11.532;2022-11-15T13:15:38;94635.00;;;26.20
15680;BMP180;15488;48.114;11.532;2022-11-15T13:18:34;94625.00;;;27.60
15680;BMP180;15488;48.114;11.532;2022-11-15T13:21:03;94628.00;;;28.70
15680;BMP180;15488;48.114;11.532;2022-11-15T13:23:54;94626.00;;;30.00
15680;BMP180;15488;48.114;11.532;2022-11-15T13:26:22;94631.00;;;30.90
15680;BMP180;15488;48.114;11.532;2022-11-15T13:28:51;94629.00;;;31.70
15680;BMP180;15488;48.114;11.532;2022-11-15T13:31:27;94630.00;;;32.50
15680;BMP180;15488;48.114;11.532;2022-11-15T13:33:59;94626.00;;;33.20
15680;BMP180;15488;48.114;11.532;2022-11-15T13:36:29;94631.00;;;33.80
15680;BMP180;15488;48.114;11.532;2022-11-15T13:39:02;94625.00;;;34.20
15680;BMP180;15488;48.114;11.532;2022-11-15T13:41:31;94629.00;;;34.50
15680;BMP180;15488;48.114;11.532;2022-11-15T13:44:00;94633.00;;;34.70
15680;BMP180;15488;48.114;11.532;2022-11-15T13:46:29;94634.00;;;34.80
15680;BMP180;15488;48.114;11.532;2022-11-15T13:49:03;94626.00;;;34.70
15680;BMP180;15488;48.114;11.532;2022-11-15T13:51:39;94630.00;;;34.60
15680;BMP180;15488;48.114;11.532;2022-11-15T13:54:16;94630.00;;;34.30
15680;BMP180;15488;48.114;11.532;2022-11-15T13:56:47;94622.00;;;33.70
15680;BMP180;15488;48.114;11.532;2022-11-15T13:59:20;94632.00;;;33.20
15680;BMP180;15488;48.114;11.532;2022-11-15T14:01:51;94630.00;;;32.70
15680;BMP180;15488;48.114;11.532;2022-11-15T14:04:22;94635.00;;;32.20
15680;BMP180;15488;48.114;11.532;2022-11-15T14:06:51;94639.00;;;31.80
15680;BMP180;15488;48.114;11.532;2022-11-15T14:09:45;94642.00;;;31.40
15680;BMP180;15488;48.114;11.532;2022-11-15T14:12:30;94636.00;;;31.10
15680;BMP180;15488;48.114;11.532;2022-11-15T14:14:59;94635.00;;;30.80
15680;BMP180;15488;48.114;11.532;2022-11-15T14:17:35;94640.00;;;30.70
15680;BMP180;15488;48.114;11.532;2022-11-15T14:20:24;94560.00;;;30.50
15680;BMP180;15488;48.114;11.532;2022-11-15T14:22:54;94568.00;;;30.20
15680;BMP180;15488;48.114;11.532;2022-11-15T14:25:24;94641.00;;;29.70
15680;BMP180;15488;48.114;11.532;2022-11-15T14:28:16;94644.00;;;29.20
15680;BMP180;15488;48.114;11.532;2022-11-15T14:30:45;94649.00;;;28.70
15680;BMP180;15488;48.114;11.532;2022-11-15T14:33:22;94645.00;;;28.10
15680;BMP180;15488;48.114;11.532;2022-11-15T14:35:50;94643.00;;;27.60
15680;BMP180;15488;48.114;11.532;2022-11-15T14:38:18;94643.00;;;27.20
15680;BMP180;15488;48.114;11.532;2022-11-15T14:40:47;94644.00;;;26.70
15680;BMP180;15488;48.114;11.532;2022-11-15T14:43:15;94647.00;;;26.30
15680;BMP180;15488;48.114;11.532;2022-11-15T14:45:42;94640.00;;;26.00
15680;BMP180;15488;48.114;11.532;2022-11-15T14:48:10;94643.00;;;25.60
15680;BMP180;15488;48.114;11.532;2022-11-15T14:50:37;94640.00;;;25.20